Terminal Aerodrome Forecast
Issued by NWS Huntsville, AL

Home | Current Version | Previous Version | Text Only | Print | Product List | Glossary On
Versions: 1 2 3 4 5 6 7 8 9 10 11 12 13
000
FTUS44 KHUN 222320
TAFMSL
TAF
KMSL 222320Z 2300/2324 22012G18KT P6SM SKC
     FM231200 28014G24KT P6SM SCT035
     FM231700 28014G21KT P6SM BKN035=

USA.gov is the U.S. government's official web portal to all federal, state and local government web resources and services.